createdAt,value
2023-04-17T00:01:37.819Z,12.35
2023-04-17T00:03:50.773Z,12.34
2023-04-17T00:06:03.655Z,12.27
2023-04-17T00:08:16.060Z,12.19
2023-04-17T00:10:29.009Z,12.18
2023-04-17T00:12:41.840Z,12.17
2023-04-17T00:14:54.579Z,12.09
2023-04-17T00:17:07.197Z,12.06
2023-04-17T00:19:19.721Z,12.05
2023-04-17T00:21:33.386Z,12.05
2023-04-17T00:23:46.967Z,12.07
2023-04-17T00:25:59.615Z,12.10
2023-04-17T00:28:12.229Z,12.19
2023-04-17T00:30:25.493Z,12.26
2023-04-17T00:32:38.815Z,12.34
2023-04-17T00:34:54.421Z,12.40
2023-04-17T00:37:08.580Z,12.48
2023-04-17T00:39:21.040Z,12.57
2023-04-17T00:41:33.642Z,12.65
2023-04-17T00:43:46.530Z,12.73
2023-04-17T00:45:59.909Z,12.79
2023-04-17T00:48:14.478Z,12.82
2023-04-17T00:50:27.723Z,12.85
2023-04-17T00:52:41.775Z,12.84
2023-04-17T00:54:54.505Z,12.84
2023-04-17T00:57:07.603Z,12.78
2023-04-17T00:59:22.670Z,12.73
2023-04-17T01:01:35.290Z,12.68
2023-04-17T01:03:48.563Z,12.65
2023-04-17T01:06:02.526Z,12.62
2023-04-17T01:08:17.552Z,12.60
2023-04-17T01:10:30.428Z,12.55
2023-04-17T01:12:47.535Z,12.50
2023-04-17T01:15:01.278Z,12.47
2023-04-17T01:17:15.435Z,12.44
2023-04-17T01:19:30.072Z,12.41
2023-04-17T01:21:42.766Z,12.35
2023-04-17T01:23:57.429Z,12.31
2023-04-17T01:26:15.690Z,12.25
2023-04-17T01:28:28.370Z,12.19
2023-04-17T01:30:41.366Z,12.15
2023-04-17T01:32:57.546Z,12.08
2023-04-17T01:35:10.807Z,12.02
2023-04-17T01:37:24.645Z,11.94
2023-04-17T01:39:37.267Z,11.86
2023-04-17T01:41:50.024Z,11.74
2023-04-17T01:44:02.808Z,11.60
2023-04-17T01:46:15.949Z,11.47
2023-04-17T01:48:29.007Z,11.34
2023-04-17T01:50:41.932Z,11.22
2023-04-17T01:52:54.712Z,11.12
2023-04-17T01:55:09.068Z,11.07
2023-04-17T01:57:22.474Z,11.00
2023-04-17T01:59:35.441Z,10.96
2023-04-17T02:01:49.247Z,10.93
2023-04-17T02:04:02.767Z,10.89
2023-04-17T02:06:15.842Z,10.86
2023-04-17T02:08:30.917Z,10.82
2023-04-17T02:10:44.827Z,10.78
2023-04-17T02:12:57.953Z,10.73
2023-04-17T02:15:13.211Z,10.70
2023-04-17T02:17:26.112Z,10.68
2023-04-17T02:19:38.742Z,10.65
2023-04-17T02:21:51.457Z,10.58
2023-04-17T02:24:04.038Z,10.54
2023-04-17T02:26:17.611Z,10.53
2023-04-17T02:28:30.510Z,10.53
2023-04-17T02:30:48.153Z,10.51
2023-04-17T02:33:01.402Z,10.47
2023-04-17T02:35:14.990Z,10.41
2023-04-17T02:37:27.880Z,10.39
2023-04-17T02:39:40.571Z,10.36
2023-04-17T02:41:53.338Z,10.33
2023-04-17T02:44:06.770Z,10.31
2023-04-17T02:46:19.344Z,10.26
2023-04-17T02:48:31.934Z,10.23
2023-04-17T02:50:44.541Z,10.21
2023-04-17T02:53:02.389Z,10.20
2023-04-17T02:55:16.528Z,10.17
2023-04-17T02:57:29.493Z,10.17
2023-04-17T02:59:42.477Z,10.14
2023-04-17T03:01:55.068Z,10.12
2023-04-17T03:04:07.886Z,10.10
2023-04-17T03:06:20.373Z,10.06
2023-04-17T03:08:36.882Z,10.03
2023-04-17T03:10:49.708Z,9.97
2023-04-17T03:13:04.469Z,9.95
2023-04-17T03:15:18.397Z,9.92
2023-04-17T03:17:31.536Z,9.89
2023-04-17T03:19:45.266Z,9.86
2023-04-17T03:21:58.483Z,9.83
2023-04-17T03:24:13.935Z,9.80
2023-04-17T03:26:26.834Z,9.76
2023-04-17T03:28:40.333Z,9.74
2023-04-17T03:30:53.019Z,9.72
2023-04-17T03:33:06.118Z,9.69
2023-04-17T03:35:18.898Z,9.66
2023-04-17T03:37:33.170Z,9.62
2023-04-17T03:39:45.951Z,9.60
2023-04-17T03:42:00.554Z,9.56
2023-04-17T03:44:14.328Z,9.53
2023-04-17T03:46:27.493Z,9.50
2023-04-17T03:48:40.607Z,9.46
2023-04-17T03:50:54.385Z,9.43
2023-04-17T03:53:08.074Z,9.39
2023-04-17T03:55:21.041Z,9.37
2023-04-17T03:57:34.804Z,9.38
2023-04-17T03:59:49.042Z,9.36
2023-04-17T04:02:02.607Z,9.36
2023-04-17T04:04:18.253Z,9.35
2023-04-17T04:06:32.711Z,9.32
2023-04-17T04:08:46.476Z,9.30
2023-04-17T04:10:59.651Z,9.29
2023-04-17T04:13:19.768Z,9.25
2023-04-17T04:15:37.168Z,9.25
2023-04-17T04:17:50.793Z,9.21
2023-04-17T04:20:03.946Z,9.22
2023-04-17T04:22:16.712Z,9.21
2023-04-17T04:24:36.392Z,9.21
2023-04-17T04:26:50.888Z,9.20
2023-04-17T04:29:03.543Z,9.18
2023-04-17T04:31:32.822Z,9.14
2023-04-17T04:33:47.231Z,9.12
2023-04-17T04:36:02.525Z,9.08
2023-04-17T04:38:16.469Z,9.03
2023-04-17T04:40:31.809Z,9.00
2023-04-17T04:42:51.050Z,8.98
2023-04-17T04:45:10.291Z,8.96
2023-04-17T04:47:23.984Z,8.96
2023-04-17T04:49:36.753Z,8.96
2023-04-17T04:51:49.433Z,8.95
2023-04-17T04:54:03.237Z,8.95
2023-04-17T04:56:16.738Z,8.96
2023-04-17T04:58:31.576Z,8.96
2023-04-17T05:00:46.152Z,8.96
2023-04-17T05:03:04.150Z,8.96
2023-04-17T05:05:17.142Z,8.96
2023-04-17T05:07:30.586Z,8.94
2023-04-17T05:09:44.062Z,8.95
2023-04-17T05:11:58.365Z,8.94
2023-04-17T05:14:12.310Z,8.94
2023-04-17T05:16:24.944Z,8.92
2023-04-17T05:18:38.448Z,8.91
2023-04-17T05:20:52.021Z,8.89
2023-04-17T05:23:05.186Z,8.88
2023-04-17T05:25:18.245Z,8.86
2023-04-17T05:27:31.161Z,8.84
2023-04-17T05:29:44.093Z,8.81
2023-04-17T05:31:57.254Z,8.79
2023-04-17T05:34:26.614Z,8.77
2023-04-17T05:36:39.880Z,8.75
2023-04-17T05:38:54.000Z,8.73
2023-04-17T05:41:08.544Z,8.71
2023-04-17T05:43:22.570Z,8.68
2023-04-17T05:45:37.951Z,8.66
2023-04-17T05:47:53.739Z,8.64
2023-04-17T05:50:06.678Z,8.62
2023-04-17T05:52:19.104Z,8.57
2023-04-17T05:54:32.154Z,8.53
2023-04-17T05:56:44.742Z,8.47
2023-04-17T05:58:57.874Z,8.44
2023-04-17T06:01:11.416Z,8.44
2023-04-17T06:03:25.076Z,8.43
2023-04-17T06:05:45.421Z,8.42
2023-04-17T06:07:58.121Z,8.40
2023-04-17T06:10:11.829Z,8.39
2023-04-17T06:12:24.650Z,8.37
2023-04-17T06:14:38.269Z,8.34
2023-04-17T06:16:51.699Z,8.32
2023-04-17T06:19:05.487Z,8.29
2023-04-17T06:21:18.086Z,8.25
2023-04-17T06:23:31.281Z,8.21
2023-04-17T06:25:44.092Z,8.19
2023-04-17T06:27:58.331Z,8.15
2023-04-17T06:30:13.042Z,8.12
2023-04-17T06:32:34.430Z,8.09
2023-04-17T06:37:08.450Z,8.05
2023-04-17T06:39:24.248Z,8.03
2023-04-17T06:41:36.977Z,7.98
2023-04-17T06:43:49.482Z,7.97
2023-04-17T06:46:02.486Z,7.95
2023-04-17T06:48:18.957Z,7.92
2023-04-17T06:50:32.151Z,7.91
2023-04-17T06:52:44.834Z,7.88
2023-04-17T06:54:58.577Z,7.86
2023-04-17T06:57:11.845Z,7.85
2023-04-17T06:59:24.459Z,7.85
2023-04-17T07:01:39.119Z,7.85
2023-04-17T07:03:52.464Z,7.83
2023-04-17T07:06:05.787Z,7.80
2023-04-17T07:08:20.542Z,7.84
2023-04-17T07:10:33.281Z,7.84
2023-04-17T07:12:46.015Z,7.82
2023-04-17T07:14:59.214Z,7.79
2023-04-17T07:17:12.179Z,7.76
2023-04-17T07:19:25.013Z,7.75
2023-04-17T07:21:37.816Z,7.73
2023-04-17T07:23:50.766Z,7.69
2023-04-17T07:26:03.605Z,7.67
2023-04-17T07:28:16.540Z,7.66
2023-04-17T07:30:29.691Z,7.63
2023-04-17T07:32:43.184Z,7.60
2023-04-17T07:34:56.407Z,7.57
2023-04-17T07:37:09.190Z,7.56
2023-04-17T07:39:22.139Z,7.54
2023-04-17T07:41:35.224Z,7.48
2023-04-17T07:43:48.204Z,7.48
2023-04-17T07:46:01.511Z,7.46
2023-04-17T07:48:14.602Z,7.46
2023-04-17T07:50:27.670Z,7.45
2023-04-17T07:52:40.612Z,7.45
2023-04-17T07:54:53.381Z,7.44
2023-04-17T07:57:06.313Z,7.43
2023-04-17T07:59:19.213Z,7.39
2023-04-17T08:01:33.054Z,7.37
2023-04-17T08:03:45.975Z,7.37
2023-04-17T08:05:59.903Z,7.38
2023-04-17T08:08:12.661Z,7.39
2023-04-17T08:10:28.510Z,7.39
2023-04-17T08:12:41.210Z,7.39
2023-04-17T08:14:53.874Z,7.40
2023-04-17T08:17:08.459Z,7.39
2023-04-17T08:19:21.416Z,7.39
2023-04-17T08:21:34.199Z,7.39
2023-04-17T08:23:46.942Z,7.38
2023-04-17T08:26:01.306Z,7.39
2023-04-17T08:28:13.866Z,7.37
2023-04-17T08:30:26.957Z,7.37
2023-04-17T08:32:46.426Z,7.34
2023-04-17T08:35:00.802Z,7.33
2023-04-17T08:37:13.383Z,7.36
2023-04-17T08:39:26.399Z,7.36
2023-04-17T08:41:42.837Z,7.35
2023-04-17T08:43:55.600Z,7.34
2023-04-17T08:46:09.151Z,7.33
2023-04-17T08:48:21.901Z,7.31
2023-04-17T08:50:35.851Z,7.32
2023-04-17T08:52:49.533Z,7.28
2023-04-17T08:55:04.692Z,7.25
2023-04-17T08:57:17.156Z,7.26
2023-04-17T08:59:29.887Z,7.24
2023-04-17T09:01:43.141Z,7.22
2023-04-17T09:03:57.349Z,7.19
2023-04-17T09:06:11.246Z,7.15
2023-04-17T09:08:25.469Z,7.13
2023-04-17T09:10:44.040Z,7.10
2023-04-17T09:13:06.808Z,7.08
2023-04-17T09:15:26.286Z,7.07
2023-04-17T09:17:41.428Z,7.05
2023-04-17T09:20:12.857Z,7.02
2023-04-17T09:22:26.052Z,7.01
2023-04-17T09:24:41.657Z,6.98
2023-04-17T09:26:54.946Z,6.95
2023-04-17T09:29:14.494Z,6.95
2023-04-17T09:31:36.363Z,6.95
2023-04-17T09:34:02.580Z,6.95
2023-04-17T09:36:28.281Z,6.95
2023-04-17T09:38:45.941Z,6.95
2023-04-17T09:40:58.816Z,6.95
2023-04-17T09:43:13.475Z,6.94
2023-04-17T09:45:29.394Z,6.93
2023-04-17T09:47:42.923Z,6.91
2023-04-17T09:49:56.974Z,6.90
2023-04-17T09:52:10.055Z,6.89
2023-04-17T09:54:24.172Z,6.87
2023-04-17T09:56:38.810Z,6.83
2023-04-17T09:58:51.776Z,6.78
2023-04-17T10:04:05.658Z,6.65
2023-04-17T10:06:39.062Z,6.63
2023-04-17T10:09:02.154Z,6.61
2023-04-17T10:11:25.386Z,6.57
2023-04-17T10:13:41.689Z,6.52
2023-04-17T10:15:57.648Z,6.53
2023-04-17T10:18:30.692Z,6.50
2023-04-17T10:21:27.378Z,6.48
2023-04-17T10:23:49.880Z,6.43
2023-04-17T10:26:45.578Z,6.47
2023-04-17T10:29:19.560Z,6.46
2023-04-17T10:32:30.315Z,6.43
2023-04-17T10:34:46.487Z,6.41
2023-04-17T10:36:59.804Z,6.39
2023-04-17T10:39:51.386Z,6.36
2023-04-17T10:42:26.745Z,6.33
2023-04-17T10:44:42.406Z,6.32
2023-04-17T10:47:08.447Z,6.29
2023-04-17T10:49:32.474Z,6.25
2023-04-17T10:51:48.405Z,6.22
2023-04-17T10:54:16.529Z,6.19
2023-04-17T10:56:33.334Z,6.16
2023-04-17T10:59:05.894Z,6.16
2023-04-17T11:01:58.963Z,6.16
2023-04-17T11:04:35.076Z,6.15
2023-04-17T11:07:08.461Z,6.12
2023-04-17T11:09:41.329Z,6.09
2023-04-17T11:12:15.338Z,6.05
2023-04-17T11:15:01.033Z,6.03
2023-04-17T11:17:27.119Z,6.02
2023-04-17T11:19:51.234Z,6.01
2023-04-17T11:22:24.646Z,5.97
2023-04-17T11:24:58.490Z,5.92
2023-04-17T11:27:15.634Z,5.90
2023-04-17T11:29:48.954Z,5.88
2023-04-17T11:32:16.560Z,5.85
2023-04-17T11:34:49.837Z,5.83
2023-04-17T11:37:22.904Z,5.77
2023-04-17T11:39:56.280Z,5.71
2023-04-17T11:42:33.770Z,5.66
2023-04-17T11:45:14.399Z,5.61
2023-04-17T11:47:50.478Z,5.59
2023-04-17T11:50:03.329Z,5.55
2023-04-17T11:52:22.375Z,5.53
2023-04-17T11:55:03.613Z,5.50
2023-04-17T11:57:25.513Z,5.48
2023-04-17T11:59:48.910Z,5.44
2023-04-17T12:02:35.539Z,5.42
2023-04-17T12:04:48.943Z,5.40
2023-04-17T12:07:29.131Z,5.39
2023-04-17T12:10:00.644Z,5.36
2023-04-17T12:12:26.092Z,5.35
2023-04-17T12:15:00.268Z,5.32
2023-04-17T12:17:15.875Z,5.30
2023-04-17T12:19:49.489Z,5.29
2023-04-17T12:22:12.549Z,5.31
2023-04-17T12:24:35.482Z,5.30
2023-04-17T12:27:08.373Z,5.30
2023-04-17T12:29:40.589Z,5.28
2023-04-17T12:32:07.258Z,5.28
2023-04-17T12:34:40.117Z,5.27
2023-04-17T12:37:12.993Z,5.25
2023-04-17T12:39:39.016Z,5.23
2023-04-17T12:42:01.897Z,5.18
2023-04-17T12:44:34.887Z,5.19
2023-04-17T12:47:07.785Z,5.16
2023-04-17T12:49:40.534Z,5.15
2023-04-17T12:52:03.686Z,5.16
2023-04-17T12:54:37.086Z,5.16
2023-04-17T12:57:08.633Z,5.17
2023-04-17T12:59:41.489Z,5.18
2023-04-17T13:02:05.723Z,5.18
2023-04-17T13:04:38.625Z,5.19
2023-04-17T13:07:11.728Z,5.15
2023-04-17T13:09:35.821Z,5.14
2023-04-17T13:12:08.930Z,5.12
2023-04-17T13:14:42.051Z,5.11
2023-04-17T13:17:17.007Z,5.12
2023-04-17T13:19:34.658Z,5.11
2023-04-17T13:21:47.842Z,5.11
2023-04-17T13:24:17.359Z,5.11
2023-04-17T13:26:50.669Z,5.11
2023-04-17T13:29:23.707Z,5.11
2023-04-17T13:31:36.657Z,5.11
2023-04-17T13:33:53.050Z,5.12
2023-04-17T13:36:25.962Z,5.13
2023-04-17T13:38:39.027Z,5.13
2023-04-17T13:40:53.637Z,5.12
2023-04-17T13:43:07.168Z,5.16
2023-04-17T13:45:30.311Z,5.17
2023-04-17T13:48:03.164Z,5.16
2023-04-17T13:50:36.095Z,5.14
2023-04-17T13:52:52.399Z,5.15
2023-04-17T13:55:05.846Z,5.15
2023-04-17T13:57:38.801Z,5.16
2023-04-17T14:00:13.662Z,5.18
2023-04-17T14:02:46.607Z,5.20
2023-04-17T14:05:11.468Z,5.21
2023-04-17T14:07:44.350Z,5.33
2023-04-17T14:10:08.707Z,5.76
2023-04-17T14:12:22.864Z,6.39
2023-04-17T14:14:39.217Z,7.16
2023-04-17T14:17:02.428Z,7.99
2023-04-17T14:19:26.653Z,8.78
2023-04-17T14:21:50.913Z,9.44
2023-04-17T14:24:07.160Z,10.02
2023-04-17T14:26:41.024Z,10.62
2023-04-17T14:28:54.181Z,11.21
2023-04-17T14:31:06.906Z,11.63
2023-04-17T14:33:39.669Z,12.09
2023-04-17T14:35:57.904Z,12.34
2023-04-17T14:38:31.566Z,12.78
2023-04-17T14:41:04.618Z,13.19
2023-04-17T14:43:37.519Z,13.34
2023-04-17T14:46:10.312Z,13.34
2023-04-17T14:48:41.108Z,13.35
2023-04-17T14:51:22.309Z,13.47
2023-04-17T14:53:45.459Z,13.84
2023-04-17T14:56:56.003Z,14.23
2023-04-17T14:59:09.208Z,14.91
2023-04-17T15:01:42.007Z,15.39
2023-04-17T15:03:58.429Z,15.73
2023-04-17T15:06:31.594Z,16.04
2023-04-17T15:09:04.313Z,16.01
2023-04-17T15:11:17.398Z,16.02
2023-04-17T15:13:30.358Z,16.17
2023-04-17T15:15:54.781Z,16.29
2023-04-17T15:18:17.786Z,16.20
2023-04-17T15:20:50.651Z,15.98
2023-04-17T15:23:04.026Z,15.67
2023-04-17T15:25:30.572Z,14.99
2023-04-17T15:28:03.506Z,14.28
2023-04-17T15:30:18.650Z,14.12
2023-04-17T15:32:50.740Z,14.28
2023-04-17T15:35:14.482Z,14.41
2023-04-17T15:37:38.352Z,14.65
2023-04-17T15:40:03.454Z,14.88
2023-04-17T15:42:19.612Z,15.01
2023-04-17T15:44:36.405Z,15.16
2023-04-17T15:46:52.612Z,15.37
2023-04-17T15:49:09.435Z,15.30
2023-04-17T15:51:32.706Z,15.22
2023-04-17T15:54:05.392Z,15.24
2023-04-17T15:56:38.226Z,15.30
2023-04-17T15:59:03.695Z,15.41
2023-04-17T16:01:37.301Z,15.36
2023-04-17T16:03:54.759Z,14.85
2023-04-17T16:06:17.682Z,14.11
2023-04-17T16:08:30.848Z,13.53
2023-04-17T16:10:47.804Z,13.10
2023-04-17T16:13:00.890Z,13.07
2023-04-17T16:15:33.813Z,13.33
2023-04-17T16:17:46.937Z,13.59
2023-04-17T16:20:06.436Z,13.90
2023-04-17T16:22:19.395Z,14.12
2023-04-17T16:24:38.972Z,14.25
2023-04-17T16:27:12.175Z,14.41
2023-04-17T16:29:35.011Z,14.59
2023-04-17T16:32:08.664Z,14.61
2023-04-17T16:34:41.323Z,14.30
2023-04-17T16:36:54.257Z,13.97
2023-04-17T16:39:10.524Z,13.57
2023-04-17T16:41:43.387Z,13.22
2023-04-17T16:43:59.371Z,13.01
2023-04-17T16:46:26.196Z,12.84
2023-04-17T16:48:51.464Z,12.67
2023-04-17T16:51:08.849Z,12.52
2023-04-17T16:53:22.418Z,12.50
2023-04-17T16:55:35.135Z,12.55
2023-04-17T16:57:49.079Z,12.57
2023-04-17T17:03:01.706Z,12.62
2023-04-17T17:05:36.708Z,12.46
2023-04-17T17:08:09.447Z,12.32
2023-04-17T17:10:22.463Z,12.22
2023-04-17T17:12:45.009Z,12.14
2023-04-17T17:14:57.835Z,12.10
2023-04-17T17:17:31.128Z,12.07
2023-04-17T17:19:43.905Z,12.01
2023-04-17T17:22:07.878Z,12.04
2023-04-17T17:24:30.748Z,12.09
2023-04-17T17:26:46.685Z,12.07
2023-04-17T17:29:09.633Z,12.04
2023-04-17T17:31:31.923Z,12.04
2023-04-17T17:34:16.275Z,11.96
2023-04-17T17:36:38.348Z,11.87
2023-04-17T17:38:56.578Z,11.71
2023-04-17T17:41:19.177Z,11.64
2023-04-17T17:43:51.846Z,11.60
2023-04-17T17:46:25.469Z,11.62
2023-04-17T17:48:49.508Z,11.62
2023-04-17T17:51:23.954Z,11.57
2023-04-17T17:53:39.775Z,11.53
2023-04-17T17:56:15.775Z,11.50
2023-04-17T17:58:38.466Z,11.49
2023-04-17T18:01:11.252Z,11.43
2023-04-17T18:03:38.256Z,11.39
2023-04-17T18:06:11.741Z,11.36
2023-04-17T18:08:35.458Z,11.35
2023-04-17T18:11:09.123Z,11.34
2023-04-17T18:13:41.856Z,11.34
2023-04-17T18:16:15.326Z,11.31
2023-04-17T18:18:33.517Z,11.28
2023-04-17T18:20:59.817Z,11.25
2023-04-17T18:23:12.654Z,11.21
2023-04-17T18:25:28.705Z,11.18
2023-04-17T18:28:00.541Z,11.14
2023-04-17T18:30:14.827Z,11.13
2023-04-17T18:32:32.201Z,11.08
2023-04-17T18:35:05.449Z,10.95
2023-04-17T18:37:38.875Z,10.84
2023-04-17T18:39:55.189Z,10.72
2023-04-17T18:42:17.599Z,10.67
2023-04-17T18:44:39.995Z,10.59
2023-04-17T18:46:52.820Z,10.54
2023-04-17T18:49:18.971Z,10.48
2023-04-17T18:51:34.526Z,10.42
2023-04-17T18:53:58.624Z,10.36
2023-04-17T18:56:31.719Z,10.28
2023-04-17T18:59:04.616Z,10.17
2023-04-17T19:01:17.580Z,10.11
2023-04-17T19:03:31.855Z,10.06
2023-04-17T19:06:04.619Z,9.98
2023-04-17T19:08:28.585Z,9.92
2023-04-17T19:10:44.905Z,9.83
2023-04-17T19:13:11.197Z,9.70
2023-04-17T19:15:24.507Z,9.59
2023-04-17T19:17:47.336Z,9.48
2023-04-17T19:20:11.920Z,9.35
2023-04-17T19:22:44.771Z,9.26
2023-04-17T19:25:04.278Z,9.21
2023-04-17T19:27:31.521Z,9.15
2023-04-17T19:29:50.384Z,9.10
2023-04-17T19:32:18.052Z,9.08
2023-04-17T19:34:31.196Z,9.05
2023-04-17T19:36:45.222Z,9.02
2023-04-17T19:39:02.675Z,9.00
2023-04-17T19:41:23.012Z,8.96
2023-04-17T19:43:46.088Z,8.97
2023-04-17T19:46:02.407Z,8.97
2023-04-17T19:48:37.378Z,8.96
2023-04-17T19:51:11.671Z,8.93
2023-04-17T19:53:37.181Z,8.89
2023-04-17T19:55:54.000Z,8.88
2023-04-17T19:58:16.919Z,8.87
2023-04-17T20:00:43.892Z,8.82
2023-04-17T20:03:17.176Z,8.81
2023-04-17T20:05:30.397Z,8.79
2023-04-17T20:07:46.522Z,8.80
2023-04-17T20:10:17.895Z,8.80
2023-04-17T20:12:50.802Z,8.81
2023-04-17T20:15:03.687Z,8.81
2023-04-17T20:17:19.485Z,8.81
2023-04-17T20:19:43.458Z,8.86
2023-04-17T20:21:59.532Z,8.89
2023-04-17T20:24:32.513Z,8.91
2023-04-17T20:26:51.774Z,8.90
2023-04-17T20:29:14.931Z,8.91
2023-04-17T20:31:38.049Z,8.91
2023-04-17T20:34:02.830Z,8.93
2023-04-17T20:36:16.415Z,8.94
2023-04-17T20:38:30.371Z,8.95
2023-04-17T20:41:03.516Z,8.92
2023-04-17T20:43:27.427Z,8.84
2023-04-17T20:46:00.257Z,8.72
2023-04-17T20:48:33.210Z,8.56
2023-04-17T20:50:56.349Z,8.36
2023-04-17T20:53:29.270Z,8.10
2023-04-17T20:55:42.549Z,7.94
2023-04-17T20:58:06.008Z,7.83
2023-04-17T21:00:30.202Z,7.71
2023-04-17T21:03:03.655Z,7.57
2023-04-17T21:05:37.020Z,7.39
2023-04-17T21:08:11.551Z,7.30
2023-04-17T21:10:24.366Z,7.27
2023-04-17T21:12:57.972Z,7.24
2023-04-17T21:15:31.151Z,7.24
2023-04-17T21:18:04.370Z,7.30
2023-04-17T21:20:18.201Z,7.41
2023-04-17T21:22:42.803Z,7.53
2023-04-17T21:24:58.774Z,7.61
2023-04-17T21:27:31.889Z,7.71
2023-04-17T21:30:05.192Z,7.80
2023-04-17T21:32:32.655Z,7.91
2023-04-17T21:34:48.989Z,8.02
2023-04-17T21:37:21.956Z,8.16
2023-04-17T21:39:54.624Z,8.32
2023-04-17T21:42:11.049Z,8.46
2023-04-17T21:44:34.682Z,8.59
2023-04-17T21:46:49.284Z,8.65
2023-04-17T21:49:25.945Z,8.76
2023-04-17T21:51:48.576Z,8.83
2023-04-17T21:54:12.608Z,8.89
2023-04-17T21:56:26.407Z,9.02
2023-04-17T21:58:59.050Z,9.20
2023-04-17T22:01:32.139Z,9.31
2023-04-17T22:04:05.324Z,9.37
2023-04-17T22:06:40.485Z,9.47
2023-04-17T22:08:53.989Z,9.54
2023-04-17T22:11:29.310Z,9.71
2023-04-17T22:14:02.844Z,9.88
2023-04-17T22:16:16.561Z,9.96
2023-04-17T22:18:45.978Z,10.03
2023-04-17T22:21:18.795Z,10.17
2023-04-17T22:23:51.654Z,10.37
2023-04-17T22:26:15.430Z,10.54
2023-04-17T22:28:37.770Z,10.60
2023-04-17T22:31:02.457Z,10.64
2023-04-17T22:33:35.638Z,10.71
2023-04-17T22:36:08.658Z,10.65
2023-04-17T22:38:33.723Z,10.55
2023-04-17T22:41:09.204Z,10.52
2023-04-17T22:43:32.450Z,10.54
2023-04-17T22:46:05.195Z,10.58
2023-04-17T22:48:38.891Z,10.64
2023-04-17T22:50:54.663Z,10.73
2023-04-17T22:53:10.419Z,10.75
2023-04-17T22:55:37.276Z,10.83
2023-04-17T22:57:53.138Z,10.90
2023-04-17T23:00:27.351Z,10.99
2023-04-17T23:02:44.861Z,11.02
2023-04-17T23:04:57.959Z,11.06
2023-04-17T23:07:23.945Z,11.10
2023-04-17T23:09:37.323Z,11.16
2023-04-17T23:12:03.745Z,11.27
2023-04-17T23:14:27.416Z,11.37
2023-04-17T23:16:43.309Z,11.41
2023-04-17T23:18:57.031Z,11.42
2023-04-17T23:21:19.012Z,11.40
2023-04-17T23:23:35.260Z,11.39
2023-04-17T23:25:51.877Z,11.41
2023-04-17T23:28:31.447Z,11.39
2023-04-17T23:30:44.470Z,11.33
2023-04-17T23:33:08.393Z,11.26
2023-04-17T23:35:41.208Z,11.22
2023-04-17T23:38:14.376Z,11.12
2023-04-17T23:40:47.520Z,11.06
2023-04-17T23:43:21.325Z,11.01
2023-04-17T23:45:37.247Z,11.00
2023-04-17T23:47:50.118Z,10.98
2023-04-17T23:50:09.994Z,11.07
2023-04-17T23:52:33.930Z,11.15
2023-04-17T23:54:49.730Z,11.14
2023-04-17T23:57:03.312Z,11.08
2023-04-17T23:59:36.941Z,11.04
